DBDHM EDNY-ESSA
Flight info
| Callsign | DBDHM |
|---|---|
| Flight time | 1h 46m |
| Altitude | 45000 |
| Route | ALAGO1W ALAGO Z1 ETAGO DCT TIKNI N746 KENIG DCT OKAGA DCT VIBAR/N0473F270 Z227 NILUG NILUG3P |
| Aircraft | C700/M-SBDGHM1RWXY/LB2 |
Departure
| Time | 2026-05-05 13:20 |
|---|---|
| Airport | Bodensee Airport Friedrichshafen (EDNY) |
Arrival
| Time | 2026-05-05 15:07 |
|---|---|
| Airport | Stockholm-Arlanda Airport (ESSA) |
| Time | Latitude | Longitude | Altitude | Speed | Heading |
|---|---|---|---|---|---|
| 2026-05-05 13:08 | 47.67336 | 9.52315 | 1363 ft | 0 kts | 193° |
| 2026-05-05 13:17 | 47.67334 | 9.52312 | 1363 ft | 1 kts | 225° |
| 2026-05-05 13:17 | 47.67336 | 9.52305 | 1363 ft | 0 kts | 285° |
| 2026-05-05 13:18 | 47.67345 | 9.52298 | 1363 ft | 3 kts | 349° |
| 2026-05-05 13:18 | 47.67379 | 9.52296 | 1362 ft | 8 kts | 353° |
| 2026-05-05 13:18 | 47.67404 | 9.52328 | 1363 ft | 5 kts | 60° |
| 2026-05-05 13:18 | 47.67428 | 9.52392 | 1363 ft | 9 kts | 60° |
| 2026-05-05 13:19 | 47.67463 | 9.52481 | 1363 ft | 11 kts | 59° |
| 2026-05-05 13:19 | 47.67514 | 9.52588 | 1363 ft | 14 kts | 31° |
| 2026-05-05 13:19 | 47.67594 | 9.52550 | 1367 ft | 12 kts | 329° |
| 2026-05-05 13:19 | 47.67641 | 9.52458 | 1369 ft | 13 kts | 247° |
| 2026-05-05 13:20 | 47.67626 | 9.52419 | 1367 ft | 6 kts | 240° |
| 2026-05-05 13:20 | 47.67446 | 9.51954 | 1356 ft | 101 kts | 240° |
| 2026-05-05 13:20 | 47.66950 | 9.50711 | 1565 ft | 168 kts | 239° |
| 2026-05-05 13:20 | 47.66267 | 9.49025 | 2400 ft | 204 kts | 239° |
| 2026-05-05 13:21 | 47.65580 | 9.47235 | 3305 ft | 197 kts | 243° |
| 2026-05-05 13:21 | 47.64923 | 9.45464 | 4220 ft | 204 kts | 242° |
| 2026-05-05 13:21 | 47.64257 | 9.43575 | 5712 ft | 205 kts | 248° |
| 2026-05-05 13:21 | 47.63935 | 9.41452 | 7168 ft | 218 kts | 263° |
| 2026-05-05 13:22 | 47.64047 | 9.39186 | 8633 ft | 225 kts | 279° |
| 2026-05-05 13:22 | 47.64686 | 9.36954 | 9795 ft | 257 kts | 301° |
| 2026-05-05 13:22 | 47.66147 | 9.35247 | 9973 ft | 276 kts | 339° |
| 2026-05-05 13:22 | 47.67969 | 9.35409 | 11585 ft | 257 kts | 23° |
| 2026-05-05 13:23 | 47.69459 | 9.36879 | 13035 ft | 267 kts | 39° |
| 2026-05-05 13:23 | 47.70920 | 9.38640 | 14255 ft | 273 kts | 36° |
| 2026-05-05 13:23 | 47.72545 | 9.40172 | 15284 ft | 279 kts | 27° |
| 2026-05-05 13:23 | 47.74296 | 9.41517 | 16310 ft | 284 kts | 26° |
| 2026-05-05 13:24 | 47.76056 | 9.42933 | 17308 ft | 289 kts | 29° |
| 2026-05-05 13:24 | 47.77795 | 9.44429 | 18254 ft | 295 kts | 30° |
| 2026-05-05 13:24 | 47.79663 | 9.45733 | 19092 ft | 299 kts | 16° |
| 2026-05-05 13:24 | 47.81748 | 9.46295 | 19662 ft | 315 kts | 1° |
| 2026-05-05 13:25 | 47.84019 | 9.46269 | 19945 ft | 342 kts | 358° |
| 2026-05-05 13:25 | 47.86511 | 9.46242 | 20194 ft | 370 kts | 359° |
| 2026-05-05 13:25 | 47.89167 | 9.46254 | 20650 ft | 387 kts | 359° |
| 2026-05-05 13:25 | 47.91877 | 9.46261 | 21586 ft | 390 kts | 359° |
| 2026-05-05 13:26 | 47.94615 | 9.46247 | 22385 ft | 397 kts | 359° |
| 2026-05-05 13:26 | 47.97400 | 9.46234 | 23395 ft | 402 kts | 360° |
| 2026-05-05 13:26 | 48.00184 | 9.46231 | 24206 ft | 408 kts | 0° |
| 2026-05-05 13:26 | 48.03053 | 9.46228 | 25024 ft | 414 kts | 360° |
| 2026-05-05 13:27 | 48.05961 | 9.46220 | 25801 ft | 420 kts | 0° |
| 2026-05-05 13:27 | 48.08911 | 9.46211 | 26546 ft | 426 kts | 0° |
| 2026-05-05 13:27 | 48.11902 | 9.46205 | 27309 ft | 432 kts | 0° |
| 2026-05-05 13:27 | 48.14897 | 9.46199 | 28036 ft | 437 kts | 0° |
| 2026-05-05 13:28 | 48.17957 | 9.46192 | 28769 ft | 443 kts | 0° |
| 2026-05-05 13:28 | 48.21061 | 9.46193 | 29505 ft | 449 kts | 0° |
| 2026-05-05 13:28 | 48.24213 | 9.46202 | 30106 ft | 454 kts | 0° |
| 2026-05-05 13:28 | 48.27387 | 9.46205 | 30656 ft | 458 kts | 0° |
| 2026-05-05 13:29 | 48.30581 | 9.46205 | 31251 ft | 460 kts | 0° |
| 2026-05-05 13:29 | 48.33810 | 9.46206 | 31755 ft | 465 kts | 0° |
| 2026-05-05 13:29 | 48.37060 | 9.46210 | 32221 ft | 469 kts | 0° |
| 2026-05-05 13:29 | 48.40342 | 9.46213 | 32665 ft | 472 kts | 0° |
| 2026-05-05 13:30 | 48.43609 | 9.46215 | 33128 ft | 474 kts | 0° |
| 2026-05-05 13:30 | 48.46919 | 9.46217 | 33749 ft | 473 kts | 0° |
| 2026-05-05 13:30 | 48.50207 | 9.46220 | 34263 ft | 473 kts | 360° |
| 2026-05-05 13:30 | 48.53463 | 9.46223 | 34787 ft | 471 kts | 359° |
| 2026-05-05 13:31 | 48.56735 | 9.46202 | 35317 ft | 469 kts | 359° |
| 2026-05-05 13:31 | 48.59993 | 9.46143 | 35832 ft | 467 kts | 358° |
| 2026-05-05 13:31 | 48.63243 | 9.46094 | 36294 ft | 466 kts | 358° |
| 2026-05-05 13:31 | 48.66505 | 9.46069 | 36765 ft | 465 kts | 358° |
| 2026-05-05 13:32 | 48.69742 | 9.46058 | 37307 ft | 464 kts | 360° |
| 2026-05-05 13:32 | 48.72946 | 9.46592 | 37820 ft | 464 kts | 10° |
| 2026-05-05 13:32 | 48.76044 | 9.47918 | 38335 ft | 463 kts | 20° |
| 2026-05-05 13:32 | 48.79015 | 9.49665 | 38693 ft | 463 kts | 20° |
| 2026-05-05 13:33 | 48.82009 | 9.51428 | 39010 ft | 462 kts | 20° |
| 2026-05-05 13:33 | 48.85013 | 9.53189 | 39314 ft | 462 kts | 20° |
| 2026-05-05 13:33 | 48.88012 | 9.54948 | 39619 ft | 462 kts | 20° |
| 2026-05-05 13:33 | 48.91009 | 9.56716 | 39933 ft | 461 kts | 20° |
| 2026-05-05 13:34 | 48.93998 | 9.58481 | 40241 ft | 461 kts | 20° |
| 2026-05-05 13:34 | 48.96986 | 9.60244 | 40521 ft | 461 kts | 20° |
| 2026-05-05 13:34 | 48.99979 | 9.62011 | 40793 ft | 461 kts | 20° |
| 2026-05-05 13:34 | 49.02967 | 9.63781 | 41067 ft | 460 kts | 20° |
| 2026-05-05 13:35 | 49.05960 | 9.65556 | 41332 ft | 460 kts | 20° |
| 2026-05-05 13:35 | 49.08948 | 9.67329 | 41599 ft | 460 kts | 20° |
| 2026-05-05 13:35 | 49.11940 | 9.69107 | 41865 ft | 460 kts | 20° |
| 2026-05-05 13:35 | 49.14923 | 9.70882 | 42092 ft | 461 kts | 20° |
| 2026-05-05 13:36 | 49.17912 | 9.72663 | 42327 ft | 461 kts | 20° |
| 2026-05-05 13:36 | 49.20904 | 9.74448 | 42576 ft | 461 kts | 20° |
| 2026-05-05 13:36 | 49.23852 | 9.76209 | 42810 ft | 461 kts | 20° |
| 2026-05-05 13:36 | 49.26851 | 9.78003 | 43036 ft | 461 kts | 20° |
| 2026-05-05 13:37 | 49.29833 | 9.79789 | 43268 ft | 461 kts | 20° |
| 2026-05-05 13:37 | 49.32831 | 9.81587 | 43516 ft | 460 kts | 20° |
| 2026-05-05 13:37 | 49.35812 | 9.83377 | 43781 ft | 461 kts | 20° |
| 2026-05-05 13:37 | 49.38772 | 9.85157 | 44032 ft | 461 kts | 20° |
| 2026-05-05 13:38 | 49.41759 | 9.86955 | 44307 ft | 460 kts | 20° |
| 2026-05-05 13:38 | 49.44743 | 9.88754 | 44557 ft | 460 kts | 20° |
| 2026-05-05 13:38 | 49.47730 | 9.90557 | 44750 ft | 460 kts | 20° |
| 2026-05-05 13:38 | 49.50687 | 9.92344 | 44820 ft | 462 kts | 20° |
| 2026-05-05 13:39 | 49.56749 | 9.96015 | 44825 ft | 471 kts | 20° |
| 2026-05-05 13:39 | 49.62915 | 9.99760 | 44817 ft | 481 kts | 20° |
| 2026-05-05 13:40 | 49.69144 | 10.03553 | 44815 ft | 487 kts | 20° |
| 2026-05-05 13:40 | 49.75496 | 10.07432 | 44808 ft | 494 kts | 20° |
| 2026-05-05 13:41 | 49.81931 | 10.11373 | 44803 ft | 498 kts | 20° |
| 2026-05-05 13:41 | 49.88374 | 10.15331 | 44802 ft | 496 kts | 20° |
| 2026-05-05 13:42 | 49.94733 | 10.19246 | 44801 ft | 493 kts | 20° |
| 2026-05-05 13:42 | 50.01096 | 10.23177 | 44808 ft | 491 kts | 20° |
| 2026-05-05 13:43 | 50.07438 | 10.27105 | 44810 ft | 491 kts | 20° |
| 2026-05-05 13:43 | 50.13796 | 10.31054 | 44801 ft | 493 kts | 20° |
| 2026-05-05 13:44 | 50.20184 | 10.35034 | 44804 ft | 495 kts | 20° |
| 2026-05-05 13:44 | 50.26589 | 10.39035 | 44804 ft | 496 kts | 20° |
| 2026-05-05 13:45 | 50.33003 | 10.43054 | 44807 ft | 496 kts | 20° |
| 2026-05-05 13:45 | 50.38331 | 10.46402 | 44810 ft | 495 kts | 20° |
| 2026-05-05 13:46 | 50.45741 | 10.51071 | 44810 ft | 493 kts | 20° |
| 2026-05-05 13:46 | 50.52097 | 10.55089 | 44812 ft | 492 kts | 20° |
| 2026-05-05 13:47 | 50.57367 | 10.58429 | 44820 ft | 490 kts | 20° |
| 2026-05-05 13:47 | 50.63690 | 10.62447 | 44809 ft | 489 kts | 20° |
| 2026-05-05 13:48 | 50.70012 | 10.66476 | 44814 ft | 489 kts | 20° |
| 2026-05-05 13:48 | 50.76338 | 10.70518 | 44830 ft | 490 kts | 20° |
| 2026-05-05 13:49 | 50.82671 | 10.74579 | 44843 ft | 491 kts | 20° |
| 2026-05-05 13:49 | 50.89014 | 10.78657 | 44853 ft | 492 kts | 20° |
| 2026-05-05 13:50 | 50.95326 | 10.82727 | 44862 ft | 493 kts | 20° |
| 2026-05-05 13:50 | 51.01688 | 10.86842 | 44863 ft | 494 kts | 20° |
| 2026-05-05 13:51 | 51.08050 | 10.90969 | 44860 ft | 494 kts | 20° |
| 2026-05-05 13:51 | 51.14399 | 10.95100 | 44849 ft | 491 kts | 20° |
| 2026-05-05 13:52 | 51.20705 | 10.99214 | 44837 ft | 488 kts | 20° |
| 2026-05-05 13:52 | 51.26969 | 11.03314 | 44827 ft | 486 kts | 20° |
| 2026-05-05 13:53 | 51.33232 | 11.07424 | 44834 ft | 487 kts | 20° |
| 2026-05-05 13:53 | 51.39516 | 11.11562 | 44838 ft | 489 kts | 20° |
| 2026-05-05 13:54 | 51.45815 | 11.15722 | 44839 ft | 489 kts | 20° |
| 2026-05-05 13:54 | 51.52072 | 11.19865 | 44851 ft | 489 kts | 20° |
| 2026-05-05 13:55 | 51.58371 | 11.24050 | 44839 ft | 488 kts | 20° |
| 2026-05-05 13:55 | 51.64651 | 11.28259 | 44847 ft | 488 kts | 21° |
| 2026-05-05 13:56 | 51.70823 | 11.32657 | 44853 ft | 487 kts | 21° |
| 2026-05-05 13:56 | 51.77079 | 11.36995 | 44865 ft | 486 kts | 21° |
| 2026-05-05 13:57 | 51.83242 | 11.41349 | 44861 ft | 486 kts | 21° |
| 2026-05-05 13:57 | 51.89452 | 11.45718 | 44860 ft | 486 kts | 21° |
| 2026-05-05 13:58 | 51.95656 | 11.50107 | 44857 ft | 487 kts | 21° |
| 2026-05-05 13:58 | 52.01868 | 11.54513 | 44864 ft | 486 kts | 21° |
| 2026-05-05 13:59 | 52.11125 | 11.61104 | 44860 ft | 485 kts | 21° |
| 2026-05-05 14:00 | 52.20382 | 11.67723 | 44862 ft | 486 kts | 21° |
| 2026-05-05 14:00 | 52.26556 | 11.72156 | 44866 ft | 488 kts | 21° |
| 2026-05-05 14:01 | 52.32809 | 11.76658 | 44862 ft | 492 kts | 21° |
| 2026-05-05 14:01 | 52.39072 | 11.81183 | 44868 ft | 491 kts | 21° |
| 2026-05-05 14:02 | 52.45317 | 11.85709 | 44862 ft | 490 kts | 21° |
| 2026-05-05 14:02 | 52.51514 | 11.90213 | 44864 ft | 489 kts | 21° |
| 2026-05-05 14:03 | 52.57728 | 11.94744 | 44863 ft | 487 kts | 21° |
| 2026-05-05 14:03 | 52.63927 | 11.99277 | 44862 ft | 487 kts | 21° |
| 2026-05-05 14:04 | 52.70138 | 12.03833 | 44875 ft | 491 kts | 21° |
| 2026-05-05 14:04 | 52.76367 | 12.08418 | 44884 ft | 496 kts | 21° |
| 2026-05-05 14:05 | 52.82677 | 12.13077 | 44887 ft | 495 kts | 21° |
| 2026-05-05 14:05 | 52.88964 | 12.17734 | 44886 ft | 493 kts | 21° |
| 2026-05-05 14:06 | 52.95183 | 12.22355 | 44885 ft | 490 kts | 21° |
| 2026-05-05 14:06 | 53.01400 | 12.26989 | 44878 ft | 488 kts | 21° |
| 2026-05-05 14:07 | 53.07594 | 12.31620 | 44879 ft | 489 kts | 21° |
| 2026-05-05 14:07 | 53.13819 | 12.36289 | 44895 ft | 490 kts | 21° |
| 2026-05-05 14:08 | 53.20018 | 12.40954 | 44902 ft | 492 kts | 21° |
| 2026-05-05 14:08 | 53.26273 | 12.45676 | 44899 ft | 494 kts | 21° |
| 2026-05-05 14:09 | 53.32543 | 12.50425 | 44909 ft | 495 kts | 21° |
| 2026-05-05 14:09 | 53.38817 | 12.55193 | 44913 ft | 495 kts | 22° |
| 2026-05-05 14:10 | 53.45065 | 12.59956 | 44902 ft | 492 kts | 22° |
| 2026-05-05 14:10 | 53.51275 | 12.64705 | 44900 ft | 489 kts | 22° |
| 2026-05-05 14:11 | 53.57459 | 12.69449 | 44919 ft | 489 kts | 22° |
| 2026-05-05 14:11 | 53.63661 | 12.74222 | 44918 ft | 491 kts | 22° |
| 2026-05-05 14:12 | 53.69892 | 12.79034 | 44922 ft | 493 kts | 22° |
| 2026-05-05 14:12 | 53.76108 | 12.83851 | 44919 ft | 495 kts | 22° |
| 2026-05-05 14:13 | 53.82362 | 12.88713 | 44913 ft | 495 kts | 22° |
| 2026-05-05 14:13 | 53.88599 | 12.93576 | 44916 ft | 492 kts | 22° |
| 2026-05-05 14:14 | 53.94823 | 12.98446 | 44915 ft | 490 kts | 22° |
| 2026-05-05 14:14 | 54.01005 | 13.03299 | 44914 ft | 489 kts | 22° |
| 2026-05-05 14:15 | 54.07183 | 13.08165 | 44928 ft | 491 kts | 22° |
| 2026-05-05 14:15 | 54.13393 | 13.13071 | 44932 ft | 493 kts | 22° |
| 2026-05-05 14:16 | 54.19629 | 13.18016 | 44933 ft | 495 kts | 22° |
| 2026-05-05 14:16 | 54.25844 | 13.22960 | 44936 ft | 496 kts | 22° |
| 2026-05-05 14:17 | 54.32096 | 13.27951 | 44929 ft | 495 kts | 22° |
| 2026-05-05 14:17 | 54.38321 | 13.32936 | 44929 ft | 493 kts | 22° |
| 2026-05-05 14:18 | 54.44538 | 13.37932 | 44925 ft | 491 kts | 22° |
| 2026-05-05 14:18 | 54.50694 | 13.42895 | 44923 ft | 490 kts | 22° |
| 2026-05-05 14:19 | 54.56886 | 13.47903 | 44935 ft | 493 kts | 22° |
| 2026-05-05 14:19 | 54.63118 | 13.52962 | 44939 ft | 495 kts | 22° |
| 2026-05-05 14:20 | 54.69365 | 13.58051 | 44937 ft | 498 kts | 22° |
| 2026-05-05 14:20 | 54.75609 | 13.63154 | 44942 ft | 497 kts | 22° |
| 2026-05-05 14:21 | 54.81853 | 13.68275 | 44918 ft | 495 kts | 22° |
| 2026-05-05 14:21 | 54.88068 | 13.73390 | 44913 ft | 493 kts | 22° |
| 2026-05-05 14:22 | 54.94188 | 13.78652 | 44913 ft | 492 kts | 25° |
| 2026-05-05 14:22 | 55.00266 | 13.84223 | 44929 ft | 494 kts | 25° |
| 2026-05-05 14:23 | 55.06350 | 13.89796 | 44927 ft | 496 kts | 25° |
| 2026-05-05 14:23 | 55.12467 | 13.95436 | 44921 ft | 498 kts | 25° |
| 2026-05-05 14:24 | 55.18619 | 14.01118 | 44923 ft | 500 kts | 25° |
| 2026-05-05 14:24 | 55.24758 | 14.06813 | 44917 ft | 498 kts | 25° |
| 2026-05-05 14:25 | 55.30835 | 14.12468 | 44912 ft | 496 kts | 25° |
| 2026-05-05 14:25 | 55.36940 | 14.18170 | 44909 ft | 494 kts | 25° |
| 2026-05-05 14:26 | 55.42972 | 14.23823 | 44903 ft | 492 kts | 25° |
| 2026-05-05 14:26 | 55.49032 | 14.29521 | 44914 ft | 494 kts | 25° |
| 2026-05-05 14:27 | 55.55109 | 14.35258 | 44916 ft | 495 kts | 25° |
| 2026-05-05 14:27 | 55.61194 | 14.41020 | 44913 ft | 497 kts | 25° |
| 2026-05-05 14:28 | 55.67299 | 14.46823 | 44908 ft | 499 kts | 25° |
| 2026-05-05 14:28 | 55.73418 | 14.52660 | 44902 ft | 500 kts | 25° |
| 2026-05-05 14:29 | 55.79577 | 14.58095 | 44903 ft | 495 kts | 21° |
| 2026-05-05 14:29 | 55.85788 | 14.63328 | 44899 ft | 493 kts | 24° |
| 2026-05-05 14:30 | 55.91922 | 14.68767 | 44891 ft | 491 kts | 22° |
| 2026-05-05 14:30 | 55.98100 | 14.74069 | 44901 ft | 494 kts | 23° |
| 2026-05-05 14:31 | 56.04285 | 14.79532 | 44901 ft | 496 kts | 23° |
| 2026-05-05 14:31 | 56.10468 | 14.84925 | 44898 ft | 498 kts | 23° |
| 2026-05-05 14:32 | 56.16694 | 14.90429 | 44893 ft | 498 kts | 23° |
| 2026-05-05 14:32 | 56.22896 | 14.95902 | 44884 ft | 496 kts | 23° |
| 2026-05-05 14:33 | 56.29079 | 15.01393 | 44883 ft | 494 kts | 23° |
| 2026-05-05 14:33 | 56.34194 | 15.05945 | 44880 ft | 492 kts | 23° |
| 2026-05-05 14:34 | 56.40307 | 15.11404 | 44878 ft | 491 kts | 23° |
| 2026-05-05 14:34 | 56.46464 | 15.16923 | 44893 ft | 493 kts | 23° |
| 2026-05-05 14:35 | 56.52596 | 15.22440 | 44888 ft | 496 kts | 23° |
| 2026-05-05 14:35 | 56.58808 | 15.28048 | 44886 ft | 498 kts | 23° |
| 2026-05-05 14:36 | 56.65019 | 15.33679 | 44883 ft | 498 kts | 24° |
| 2026-05-05 14:36 | 56.71181 | 15.39284 | 44893 ft | 496 kts | 23° |
| 2026-05-05 14:37 | 56.77363 | 15.44928 | 44876 ft | 495 kts | 24° |
| 2026-05-05 14:37 | 56.83486 | 15.50539 | 44872 ft | 493 kts | 24° |
| 2026-05-05 14:38 | 56.89596 | 15.56158 | 44867 ft | 494 kts | 24° |
| 2026-05-05 14:38 | 56.95746 | 15.61836 | 44886 ft | 495 kts | 24° |
| 2026-05-05 14:39 | 57.01922 | 15.67558 | 44877 ft | 498 kts | 24° |
| 2026-05-05 14:39 | 57.08125 | 15.73328 | 44877 ft | 500 kts | 24° |
| 2026-05-05 14:40 | 57.14313 | 15.79106 | 44883 ft | 502 kts | 24° |
| 2026-05-05 14:40 | 57.20540 | 15.84942 | 44896 ft | 501 kts | 24° |
| 2026-05-05 14:41 | 57.26747 | 15.90780 | 44875 ft | 499 kts | 24° |
| 2026-05-05 14:41 | 57.32928 | 15.96617 | 44869 ft | 498 kts | 24° |
| 2026-05-05 14:42 | 57.39056 | 16.02425 | 44873 ft | 496 kts | 24° |
| 2026-05-05 14:42 | 57.45210 | 16.08281 | 44900 ft | 496 kts | 24° |
| 2026-05-05 14:43 | 57.51357 | 16.14151 | 44881 ft | 500 kts | 24° |
| 2026-05-05 14:43 | 57.57580 | 16.20119 | 44884 ft | 503 kts | 24° |
| 2026-05-05 14:44 | 57.60711 | 16.23129 | 44638 ft | 508 kts | 24° |
| 2026-05-05 14:44 | 57.63845 | 16.26146 | 43953 ft | 511 kts | 24° |
| 2026-05-05 14:44 | 57.67002 | 16.29198 | 43279 ft | 508 kts | 24° |
| 2026-05-05 14:44 | 57.70135 | 16.32232 | 42612 ft | 502 kts | 24° |
| 2026-05-05 14:45 | 57.73210 | 16.35212 | 41957 ft | 494 kts | 24° |
| 2026-05-05 14:45 | 57.76239 | 16.38152 | 41314 ft | 487 kts | 23° |
| 2026-05-05 14:45 | 57.79230 | 16.41061 | 40680 ft | 481 kts | 23° |
| 2026-05-05 14:45 | 57.82159 | 16.43915 | 40059 ft | 478 kts | 23° |
| 2026-05-05 14:46 | 57.85110 | 16.46795 | 39434 ft | 478 kts | 23° |
| 2026-05-05 14:46 | 57.88070 | 16.49689 | 38806 ft | 480 kts | 22° |
| 2026-05-05 14:46 | 57.91041 | 16.52600 | 38092 ft | 483 kts | 22° |
| 2026-05-05 14:46 | 57.94028 | 16.55534 | 37465 ft | 485 kts | 22° |
| 2026-05-05 14:47 | 57.97037 | 16.58494 | 36820 ft | 491 kts | 22° |
| 2026-05-05 14:47 | 58.00085 | 16.61495 | 36170 ft | 496 kts | 22° |
| 2026-05-05 14:47 | 58.03154 | 16.64527 | 35515 ft | 500 kts | 22° |
| 2026-05-05 14:47 | 58.06237 | 16.67583 | 34847 ft | 501 kts | 21° |
| 2026-05-05 14:48 | 58.09328 | 16.70650 | 34189 ft | 500 kts | 21° |
| 2026-05-05 14:48 | 58.12366 | 16.73668 | 33493 ft | 499 kts | 21° |
| 2026-05-05 14:48 | 58.15442 | 16.76728 | 32834 ft | 495 kts | 21° |
| 2026-05-05 14:48 | 58.18503 | 16.79779 | 32173 ft | 496 kts | 21° |
| 2026-05-05 14:49 | 58.21572 | 16.82842 | 31544 ft | 501 kts | 21° |
| 2026-05-05 14:49 | 58.24680 | 16.85951 | 30851 ft | 506 kts | 21° |
| 2026-05-05 14:49 | 58.27778 | 16.89063 | 30183 ft | 509 kts | 21° |
| 2026-05-05 14:49 | 58.30928 | 16.92235 | 29457 ft | 509 kts | 21° |
| 2026-05-05 14:50 | 58.34037 | 16.95374 | 28872 ft | 499 kts | 21° |
| 2026-05-05 14:50 | 58.37003 | 16.98384 | 28665 ft | 477 kts | 21° |
| 2026-05-05 14:50 | 58.39966 | 17.01365 | 27816 ft | 482 kts | 21° |
| 2026-05-05 14:50 | 58.42954 | 17.04361 | 27049 ft | 487 kts | 21° |
| 2026-05-05 14:51 | 58.45911 | 17.07372 | 26313 ft | 486 kts | 22° |
| 2026-05-05 14:51 | 58.48881 | 17.10420 | 25617 ft | 482 kts | 21° |
| 2026-05-05 14:51 | 58.51823 | 17.13419 | 24961 ft | 475 kts | 21° |
| 2026-05-05 14:51 | 58.54735 | 17.16380 | 24337 ft | 469 kts | 21° |
| 2026-05-05 14:52 | 58.57599 | 17.19306 | 23726 ft | 464 kts | 21° |
| 2026-05-05 14:52 | 58.60435 | 17.22216 | 23072 ft | 460 kts | 21° |
| 2026-05-05 14:52 | 58.63246 | 17.25105 | 22460 ft | 455 kts | 21° |
| 2026-05-05 14:52 | 58.66030 | 17.27966 | 21862 ft | 452 kts | 21° |
| 2026-05-05 14:53 | 58.68778 | 17.30794 | 21269 ft | 450 kts | 21° |
| 2026-05-05 14:53 | 58.71537 | 17.33644 | 20674 ft | 449 kts | 21° |
| 2026-05-05 14:53 | 58.74292 | 17.36494 | 20086 ft | 448 kts | 21° |
| 2026-05-05 14:53 | 58.77018 | 17.39321 | 19488 ft | 443 kts | 21° |
| 2026-05-05 14:54 | 58.79684 | 17.42092 | 18913 ft | 437 kts | 20° |
| 2026-05-05 14:54 | 58.82347 | 17.44858 | 18337 ft | 432 kts | 20° |
| 2026-05-05 14:54 | 58.84991 | 17.47609 | 17731 ft | 428 kts | 20° |
| 2026-05-05 14:54 | 58.87599 | 17.50331 | 17159 ft | 422 kts | 20° |
| 2026-05-05 14:55 | 58.90162 | 17.53012 | 16605 ft | 417 kts | 20° |
| 2026-05-05 14:55 | 58.92710 | 17.55677 | 16054 ft | 414 kts | 21° |
| 2026-05-05 14:55 | 58.95214 | 17.58302 | 15513 ft | 411 kts | 21° |
| 2026-05-05 14:55 | 58.97725 | 17.60938 | 15010 ft | 409 kts | 21° |
| 2026-05-05 14:56 | 59.00225 | 17.63584 | 14430 ft | 406 kts | 21° |
| 2026-05-05 14:56 | 59.02674 | 17.66253 | 13896 ft | 400 kts | 22° |
| 2026-05-05 14:56 | 59.05076 | 17.68903 | 13338 ft | 390 kts | 22° |
| 2026-05-05 14:56 | 59.07373 | 17.71454 | 12833 ft | 370 kts | 22° |
| 2026-05-05 14:57 | 59.09537 | 17.73856 | 12351 ft | 353 kts | 22° |
| 2026-05-05 14:57 | 59.11634 | 17.76170 | 11893 ft | 338 kts | 22° |
| 2026-05-05 14:57 | 59.13621 | 17.78357 | 11686 ft | 318 kts | 22° |
| 2026-05-05 14:57 | 59.15516 | 17.80431 | 11081 ft | 315 kts | 23° |
| 2026-05-05 14:58 | 59.17402 | 17.82453 | 10666 ft | 299 kts | 22° |
| 2026-05-05 14:58 | 59.19146 | 17.84311 | 10542 ft | 273 kts | 22° |
| 2026-05-05 14:58 | 59.20739 | 17.86025 | 10477 ft | 250 kts | 22° |
| 2026-05-05 14:58 | 59.22248 | 17.87660 | 10012 ft | 248 kts | 22° |
| 2026-05-05 14:59 | 59.23735 | 17.89237 | 9683 ft | 242 kts | 23° |
| 2026-05-05 14:59 | 59.25231 | 17.90748 | 9231 ft | 239 kts | 22° |
| 2026-05-05 14:59 | 59.26768 | 17.92255 | 8256 ft | 262 kts | 22° |
| 2026-05-05 14:59 | 59.28482 | 17.93895 | 7225 ft | 282 kts | 22° |
| 2026-05-05 15:00 | 59.30225 | 17.95556 | 6791 ft | 275 kts | 22° |
| 2026-05-05 15:00 | 59.31365 | 17.96640 | 6438 ft | 273 kts | 22° |
| 2026-05-05 15:00 | 59.33778 | 17.97251 | 5694 ft | 258 kts | 343° |
| 2026-05-05 15:00 | 59.35289 | 17.95638 | 5165 ft | 249 kts | 314° |
| 2026-05-05 15:01 | 59.36302 | 17.92927 | 4657 ft | 244 kts | 300° |
| 2026-05-05 15:01 | 59.37360 | 17.90341 | 4044 ft | 248 kts | 322° |
| 2026-05-05 15:01 | 59.38877 | 17.88931 | 4031 ft | 236 kts | 336° |
| 2026-05-05 15:01 | 59.40434 | 17.87997 | 4015 ft | 231 kts | 347° |
| 2026-05-05 15:02 | 59.41987 | 17.87807 | 4017 ft | 216 kts | 359° |
| 2026-05-05 15:02 | 59.43420 | 17.88162 | 4009 ft | 206 kts | 5° |
| 2026-05-05 15:02 | 59.44846 | 17.88661 | 3799 ft | 208 kts | 6° |
| 2026-05-05 15:02 | 59.46283 | 17.89190 | 3525 ft | 210 kts | 5° |
| 2026-05-05 15:03 | 59.47713 | 17.89688 | 3238 ft | 208 kts | 6° |
| 2026-05-05 15:03 | 59.49128 | 17.90213 | 2947 ft | 205 kts | 6° |
| 2026-05-05 15:03 | 59.50519 | 17.90698 | 2623 ft | 199 kts | 6° |
| 2026-05-05 15:03 | 59.51813 | 17.91173 | 2364 ft | 188 kts | 5° |
| 2026-05-05 15:04 | 59.53129 | 17.91643 | 2129 ft | 197 kts | 6° |
| 2026-05-05 15:04 | 59.54461 | 17.92125 | 1884 ft | 189 kts | 6° |
| 2026-05-05 15:04 | 59.55711 | 17.92578 | 1595 ft | 174 kts | 5° |
| 2026-05-05 15:04 | 59.56868 | 17.92990 | 1348 ft | 163 kts | 5° |
| 2026-05-05 15:05 | 59.58945 | 17.93750 | 940 ft | 140 kts | 2° |
| 2026-05-05 15:05 | 59.59904 | 17.94076 | 730 ft | 141 kts | 5° |
| 2026-05-05 15:05 | 59.60871 | 17.94442 | 542 ft | 140 kts | 6° |
| 2026-05-05 15:06 | 59.61823 | 17.94784 | 333 ft | 138 kts | 5° |
| 2026-05-05 15:06 | 59.62767 | 17.95135 | 172 ft | 138 kts | 6° |
| 2026-05-05 15:06 | 59.63568 | 17.95404 | 139 ft | 86 kts | 8° |
| 2026-05-05 15:06 | 59.63994 | 17.95562 | 138 ft | 53 kts | 11° |
| 2026-05-05 15:07 | 59.64292 | 17.95674 | 139 ft | 27 kts | 11° |
| 2026-05-05 15:07 | 59.64487 | 17.95678 | 137 ft | 30 kts | 348° |
| 2026-05-05 15:07 | 59.64697 | 17.95551 | 133 ft | 33 kts | 339° |
| 2026-05-05 15:07 | 59.64881 | 17.95484 | 132 ft | 21 kts | 13° |
| 2026-05-05 15:08 | 59.65034 | 17.95514 | 132 ft | 24 kts | 350° |
| 2026-05-05 15:08 | 59.65205 | 17.95428 | 132 ft | 27 kts | 345° |
| 2026-05-05 15:08 | 59.65393 | 17.95329 | 132 ft | 29 kts | 346° |
| 2026-05-05 15:08 | 59.65592 | 17.95225 | 132 ft | 28 kts | 344° |
| 2026-05-05 15:09 | 59.65772 | 17.95124 | 132 ft | 20 kts | 343° |
| 2026-05-05 15:09 | 59.65853 | 17.95155 | 132 ft | 13 kts | 62° |
| 2026-05-05 15:09 | 59.65879 | 17.95363 | 132 ft | 18 kts | 76° |
| 2026-05-05 15:09 | 59.65915 | 17.95625 | 132 ft | 22 kts | 75° |
| 2026-05-05 15:10 | 59.65949 | 17.95909 | 132 ft | 12 kts | 78° |
| 2026-05-05 15:10 | 59.65914 | 17.96016 | 132 ft | 3 kts | 170° |
| 2026-05-05 15:10 | 59.65880 | 17.95995 | 132 ft | 7 kts | 201° |
| 2026-05-05 15:10 | 59.65833 | 17.96008 | 132 ft | 2 kts | 165° |
| 2026-05-05 15:11 | 59.65816 | 17.96017 | 132 ft | 0 kts | 165° |
| 2026-05-05 15:11 | 59.65814 | 17.96018 | 132 ft | 0 kts | 165° |
| 2026-05-05 15:11 | 59.65809 | 17.96021 | 132 ft | 0 kts | 165° |